sensor_id;sensor_type;location;lat;lon;timestamp;P1;durP1;ratioP1;P2;durP2;ratioP2
9208;SDS011;4639;48.862;9.188;2023-04-24T00:01:47;5.75;;;0.90;;
9208;SDS011;4639;48.862;9.188;2023-04-24T00:04:13;2.58;;;0.90;;
9208;SDS011;4639;48.862;9.188;2023-04-24T00:06:41;2.30;;;1.00;;
9208;SDS011;4639;48.862;9.188;2023-04-24T00:09:07;1.52;;;0.88;;
9208;SDS011;4639;48.862;9.188;2023-04-24T00:11:34;1.17;;;0.80;;
9208;SDS011;4639;48.862;9.188;2023-04-24T00:14:01;1.08;;;0.80;;
9208;SDS011;4639;48.862;9.188;2023-04-24T00:16:26;3.13;;;1.00;;
9208;SDS011;4639;48.862;9.188;2023-04-24T00:18:52;1.92;;;1.00;;
9208;SDS011;4639;48.862;9.188;2023-04-24T00:21:18;1.95;;;0.90;;
9208;SDS011;4639;48.862;9.188;2023-04-24T00:23:44;1.75;;;1.02;;
9208;SDS011;4639;48.862;9.188;2023-04-24T00:26:10;1.65;;;0.95;;
9208;SDS011;4639;48.862;9.188;2023-04-24T00:28:36;1.45;;;0.90;;
9208;SDS011;4639;48.862;9.188;2023-04-24T00:31:01;2.35;;;1.33;;
9208;SDS011;4639;48.862;9.188;2023-04-24T00:33:27;2.22;;;1.00;;
9208;SDS011;4639;48.862;9.188;2023-04-24T00:35:52;0.98;;;0.88;;
9208;SDS011;4639;48.862;9.188;2023-04-24T00:38:18;1.65;;;0.90;;
9208;SDS011;4639;48.862;9.188;2023-04-24T00:40:44;1.50;;;1.00;;
9208;SDS011;4639;48.862;9.188;2023-04-24T00:43:10;1.15;;;0.93;;
9208;SDS011;4639;48.862;9.188;2023-04-24T00:45:36;1.30;;;0.82;;
9208;SDS011;4639;48.862;9.188;2023-04-24T00:48:02;4.20;;;1.13;;
9208;SDS011;4639;48.862;9.188;2023-04-24T00:50:28;2.03;;;0.93;;
9208;SDS011;4639;48.862;9.188;2023-04-24T00:52:55;1.98;;;0.80;;
9208;SDS011;4639;48.862;9.188;2023-04-24T00:55:21;1.90;;;1.10;;
9208;SDS011;4639;48.862;9.188;2023-04-24T00:57:46;1.73;;;1.02;;
9208;SDS011;4639;48.862;9.188;2023-04-24T01:00:13;2.35;;;0.98;;
9208;SDS011;4639;48.862;9.188;2023-04-24T01:02:40;1.42;;;1.00;;
9208;SDS011;4639;48.862;9.188;2023-04-24T01:05:10;3.17;;;0.80;;
9208;SDS011;4639;48.862;9.188;2023-04-24T01:07:36;1.33;;;0.82;;
9208;SDS011;4639;48.862;9.188;2023-04-24T01:10:03;1.80;;;1.00;;
9208;SDS011;4639;48.862;9.188;2023-04-24T01:12:29;2.00;;;1.02;;
9208;SDS011;4639;48.862;9.188;2023-04-24T01:14:55;1.70;;;0.80;;
9208;SDS011;4639;48.862;9.188;2023-04-24T01:17:21;1.88;;;0.93;;
9208;SDS011;4639;48.862;9.188;2023-04-24T01:19:47;1.95;;;0.90;;
9208;SDS011;4639;48.862;9.188;2023-04-24T01:22:13;2.28;;;1.10;;
9208;SDS011;4639;48.862;9.188;2023-04-24T01:24:39;3.08;;;0.88;;
9208;SDS011;4639;48.862;9.188;2023-04-24T01:27:06;2.75;;;0.93;;
9208;SDS011;4639;48.862;9.188;2023-04-24T01:29:33;1.00;;;0.70;;
9208;SDS011;4639;48.862;9.188;2023-04-24T01:31:59;0.80;;;0.80;;
9208;SDS011;4639;48.862;9.188;2023-04-24T01:34:25;1.52;;;0.90;;
9208;SDS011;4639;48.862;9.188;2023-04-24T01:36:51;3.63;;;0.90;;
9208;SDS011;4639;48.862;9.188;2023-04-24T01:39:17;2.42;;;0.90;;
9208;SDS011;4639;48.862;9.188;2023-04-24T01:41:43;2.25;;;1.00;;
9208;SDS011;4639;48.862;9.188;2023-04-24T01:44:08;2.67;;;0.90;;
9208;SDS011;4639;48.862;9.188;2023-04-24T01:46:34;3.15;;;1.10;;
9208;SDS011;4639;48.862;9.188;2023-04-24T01:49:00;1.83;;;0.80;;
9208;SDS011;4639;48.862;9.188;2023-04-24T01:51:27;0.95;;;0.80;;
9208;SDS011;4639;48.862;9.188;2023-04-24T01:53:52;1.23;;;0.88;;
9208;SDS011;4639;48.862;9.188;2023-04-24T01:56:19;1.30;;;0.80;;
9208;SDS011;4639;48.862;9.188;2023-04-24T01:58:45;1.42;;;0.80;;
9208;SDS011;4639;48.862;9.188;2023-04-24T02:01:15;0.98;;;0.70;;
9208;SDS011;4639;48.862;9.188;2023-04-24T02:03:43;2.40;;;0.88;;
9208;SDS011;4639;48.862;9.188;2023-04-24T02:06:09;2.35;;;0.90;;
9208;SDS011;4639;48.862;9.188;2023-04-24T02:08:35;1.45;;;0.70;;
9208;SDS011;4639;48.862;9.188;2023-04-24T02:11:00;1.15;;;0.80;;
9208;SDS011;4639;48.862;9.188;2023-04-24T02:13:27;3.63;;;1.20;;
9208;SDS011;4639;48.862;9.188;2023-04-24T02:15:52;2.20;;;0.90;;
9208;SDS011;4639;48.862;9.188;2023-04-24T02:18:18;3.05;;;0.88;;
9208;SDS011;4639;48.862;9.188;2023-04-24T02:20:44;1.05;;;0.98;;
9208;SDS011;4639;48.862;9.188;2023-04-24T02:23:10;2.55;;;1.00;;
9208;SDS011;4639;48.862;9.188;2023-04-24T02:25:36;1.17;;;0.90;;
9208;SDS011;4639;48.862;9.188;2023-04-24T02:28:02;0.60;;;0.60;;
9208;SDS011;4639;48.862;9.188;2023-04-24T02:30:27;2.00;;;0.98;;
9208;SDS011;4639;48.862;9.188;2023-04-24T02:32:53;1.67;;;0.80;;
9208;SDS011;4639;48.862;9.188;2023-04-24T02:35:20;1.27;;;1.00;;
9208;SDS011;4639;48.862;9.188;2023-04-24T02:37:45;1.23;;;0.80;;
9208;SDS011;4639;48.862;9.188;2023-04-24T02:40:11;1.05;;;0.95;;
9208;SDS011;4639;48.862;9.188;2023-04-24T02:42:36;1.50;;;0.95;;
9208;SDS011;4639;48.862;9.188;2023-04-24T02:45:02;1.50;;;0.80;;
9208;SDS011;4639;48.862;9.188;2023-04-24T02:47:28;4.03;;;1.25;;
9208;SDS011;4639;48.862;9.188;2023-04-24T02:49:54;5.15;;;1.00;;
9208;SDS011;4639;48.862;9.188;2023-04-24T02:52:19;2.88;;;0.90;;
9208;SDS011;4639;48.862;9.188;2023-04-24T02:54:45;1.60;;;1.05;;
9208;SDS011;4639;48.862;9.188;2023-04-24T02:57:11;2.25;;;1.10;;
9208;SDS011;4639;48.862;9.188;2023-04-24T02:59:36;1.65;;;1.05;;
9208;SDS011;4639;48.862;9.188;2023-04-24T03:02:02;6.20;;;1.10;;
9208;SDS011;4639;48.862;9.188;2023-04-24T03:04:27;3.40;;;0.90;;
9208;SDS011;4639;48.862;9.188;2023-04-24T03:06:53;3.58;;;1.35;;
9208;SDS011;4639;48.862;9.188;2023-04-24T03:09:20;2.25;;;1.05;;
9208;SDS011;4639;48.862;9.188;2023-04-24T03:11:46;2.13;;;0.90;;
9208;SDS011;4639;48.862;9.188;2023-04-24T03:14:11;2.28;;;0.82;;
9208;SDS011;4639;48.862;9.188;2023-04-24T03:16:37;1.08;;;0.85;;
9208;SDS011;4639;48.862;9.188;2023-04-24T03:19:03;1.83;;;1.00;;
9208;SDS011;4639;48.862;9.188;2023-04-24T03:21:28;1.58;;;0.98;;
9208;SDS011;4639;48.862;9.188;2023-04-24T03:23:54;1.00;;;0.80;;
9208;SDS011;4639;48.862;9.188;2023-04-24T03:26:19;1.48;;;0.98;;
9208;SDS011;4639;48.862;9.188;2023-04-24T03:28:45;1.38;;;1.08;;
9208;SDS011;4639;48.862;9.188;2023-04-24T03:31:10;1.65;;;0.90;;
9208;SDS011;4639;48.862;9.188;2023-04-24T03:33:36;1.67;;;1.00;;
9208;SDS011;4639;48.862;9.188;2023-04-24T03:36:02;3.42;;;1.02;;
9208;SDS011;4639;48.862;9.188;2023-04-24T03:38:27;0.88;;;0.88;;
9208;SDS011;4639;48.862;9.188;2023-04-24T03:40:53;2.47;;;1.20;;
9208;SDS011;4639;48.862;9.188;2023-04-24T03:43:19;1.73;;;1.00;;
9208;SDS011;4639;48.862;9.188;2023-04-24T03:45:44;1.60;;;0.95;;
9208;SDS011;4639;48.862;9.188;2023-04-24T03:48:10;2.05;;;0.98;;
9208;SDS011;4639;48.862;9.188;2023-04-24T03:50:35;2.15;;;1.20;;
9208;SDS011;4639;48.862;9.188;2023-04-24T03:53:01;2.53;;;1.02;;
9208;SDS011;4639;48.862;9.188;2023-04-24T03:55:27;1.88;;;1.00;;
9208;SDS011;4639;48.862;9.188;2023-04-24T03:57:52;3.03;;;1.30;;
9208;SDS011;4639;48.862;9.188;2023-04-24T04:00:18;3.97;;;1.10;;
9208;SDS011;4639;48.862;9.188;2023-04-24T04:02:43;2.35;;;1.10;;
9208;SDS011;4639;48.862;9.188;2023-04-24T04:05:09;2.60;;;1.13;;
9208;SDS011;4639;48.862;9.188;2023-04-24T04:07:34;2.70;;;0.80;;
9208;SDS011;4639;48.862;9.188;2023-04-24T04:10:00;1.70;;;0.90;;
9208;SDS011;4639;48.862;9.188;2023-04-24T04:12:25;2.90;;;1.17;;
9208;SDS011;4639;48.862;9.188;2023-04-24T04:14:51;2.63;;;1.23;;
9208;SDS011;4639;48.862;9.188;2023-04-24T04:17:16;3.35;;;1.08;;
9208;SDS011;4639;48.862;9.188;2023-04-24T04:19:43;3.92;;;1.00;;
9208;SDS011;4639;48.862;9.188;2023-04-24T04:22:08;2.97;;;1.10;;
9208;SDS011;4639;48.862;9.188;2023-04-24T04:24:34;2.97;;;1.20;;
9208;SDS011;4639;48.862;9.188;2023-04-24T04:27:03;3.75;;;1.40;;
9208;SDS011;4639;48.862;9.188;2023-04-24T04:29:29;5.95;;;1.45;;
9208;SDS011;4639;48.862;9.188;2023-04-24T04:31:56;1.75;;;1.20;;
9208;SDS011;4639;48.862;9.188;2023-04-24T04:34:22;3.03;;;1.48;;
9208;SDS011;4639;48.862;9.188;2023-04-24T04:36:48;2.85;;;1.23;;
9208;SDS011;4639;48.862;9.188;2023-04-24T04:39:13;3.83;;;1.27;;
9208;SDS011;4639;48.862;9.188;2023-04-24T04:41:40;2.53;;;1.20;;
9208;SDS011;4639;48.862;9.188;2023-04-24T04:44:06;2.25;;;1.27;;
9208;SDS011;4639;48.862;9.188;2023-04-24T04:46:33;2.10;;;1.25;;
9208;SDS011;4639;48.862;9.188;2023-04-24T04:48:59;1.63;;;1.10;;
9208;SDS011;4639;48.862;9.188;2023-04-24T04:51:26;3.83;;;1.38;;
9208;SDS011;4639;48.862;9.188;2023-04-24T04:53:52;2.88;;;1.40;;
9208;SDS011;4639;48.862;9.188;2023-04-24T04:56:18;1.45;;;1.23;;
9208;SDS011;4639;48.862;9.188;2023-04-24T04:58:43;2.88;;;1.20;;
9208;SDS011;4639;48.862;9.188;2023-04-24T05:01:09;1.58;;;1.35;;
9208;SDS011;4639;48.862;9.188;2023-04-24T05:03:35;1.30;;;1.20;;
9208;SDS011;4639;48.862;9.188;2023-04-24T05:06:00;2.38;;;1.50;;
9208;SDS011;4639;48.862;9.188;2023-04-24T05:08:27;2.40;;;1.30;;
9208;SDS011;4639;48.862;9.188;2023-04-24T05:10:52;3.53;;;1.42;;
9208;SDS011;4639;48.862;9.188;2023-04-24T05:13:18;2.47;;;1.58;;
9208;SDS011;4639;48.862;9.188;2023-04-24T05:15:44;2.88;;;1.60;;
9208;SDS011;4639;48.862;9.188;2023-04-24T05:18:10;1.40;;;1.30;;
9208;SDS011;4639;48.862;9.188;2023-04-24T05:20:35;3.72;;;1.48;;
9208;SDS011;4639;48.862;9.188;2023-04-24T05:23:01;1.60;;;1.50;;
9208;SDS011;4639;48.862;9.188;2023-04-24T05:25:26;2.60;;;1.40;;
9208;SDS011;4639;48.862;9.188;2023-04-24T05:27:52;1.77;;;1.48;;
9208;SDS011;4639;48.862;9.188;2023-04-24T05:30:18;1.58;;;1.45;;
9208;SDS011;4639;48.862;9.188;2023-04-24T05:32:44;3.20;;;1.77;;
9208;SDS011;4639;48.862;9.188;2023-04-24T05:35:10;6.68;;;1.88;;
9208;SDS011;4639;48.862;9.188;2023-04-24T05:37:37;1.77;;;1.67;;
9208;SDS011;4639;48.862;9.188;2023-04-24T05:40:02;1.75;;;1.65;;
9208;SDS011;4639;48.862;9.188;2023-04-24T05:42:30;2.80;;;1.77;;
9208;SDS011;4639;48.862;9.188;2023-04-24T05:44:56;2.38;;;1.65;;
9208;SDS011;4639;48.862;9.188;2023-04-24T05:47:22;1.55;;;1.45;;
9208;SDS011;4639;48.862;9.188;2023-04-24T05:49:47;3.40;;;1.63;;
9208;SDS011;4639;48.862;9.188;2023-04-24T05:52:13;6.82;;;1.83;;
9208;SDS011;4639;48.862;9.188;2023-04-24T05:54:39;3.72;;;1.80;;
9208;SDS011;4639;48.862;9.188;2023-04-24T05:57:04;1.95;;;1.73;;
9208;SDS011;4639;48.862;9.188;2023-04-24T05:59:33;4.70;;;1.73;;
9208;SDS011;4639;48.862;9.188;2023-04-24T06:02:00;1.52;;;1.40;;
9208;SDS011;4639;48.862;9.188;2023-04-24T06:04:25;3.63;;;1.90;;
9208;SDS011;4639;48.862;9.188;2023-04-24T06:06:51;1.70;;;1.60;;
9208;SDS011;4639;48.862;9.188;2023-04-24T06:09:20;2.53;;;1.60;;
9208;SDS011;4639;48.862;9.188;2023-04-24T06:11:47;2.28;;;1.83;;
9208;SDS011;4639;48.862;9.188;2023-04-24T06:14:12;2.45;;;1.60;;
9208;SDS011;4639;48.862;9.188;2023-04-24T06:16:39;3.08;;;1.63;;
9208;SDS011;4639;48.862;9.188;2023-04-24T06:19:07;3.72;;;1.85;;
9208;SDS011;4639;48.862;9.188;2023-04-24T06:21:32;2.13;;;1.48;;
9208;SDS011;4639;48.862;9.188;2023-04-24T06:24:03;2.50;;;1.60;;
9208;SDS011;4639;48.862;9.188;2023-04-24T06:26:29;2.17;;;1.63;;
9208;SDS011;4639;48.862;9.188;2023-04-24T06:28:58;1.92;;;1.58;;
9208;SDS011;4639;48.862;9.188;2023-04-24T06:31:25;2.58;;;1.70;;
9208;SDS011;4639;48.862;9.188;2023-04-24T06:33:50;2.58;;;1.67;;
9208;SDS011;4639;48.862;9.188;2023-04-24T06:36:16;3.67;;;1.73;;
9208;SDS011;4639;48.862;9.188;2023-04-24T06:38:42;2.65;;;1.65;;
9208;SDS011;4639;48.862;9.188;2023-04-24T06:41:07;3.65;;;1.67;;
9208;SDS011;4639;48.862;9.188;2023-04-24T06:43:33;2.17;;;1.50;;
9208;SDS011;4639;48.862;9.188;2023-04-24T06:45:59;5.63;;;1.77;;
9208;SDS011;4639;48.862;9.188;2023-04-24T06:48:25;3.30;;;1.75;;
9208;SDS011;4639;48.862;9.188;2023-04-24T06:50:51;2.45;;;1.70;;
9208;SDS011;4639;48.862;9.188;2023-04-24T06:53:17;2.88;;;1.95;;
9208;SDS011;4639;48.862;9.188;2023-04-24T06:55:43;2.63;;;1.77;;
9208;SDS011;4639;48.862;9.188;2023-04-24T06:58:11;3.08;;;2.03;;
9208;SDS011;4639;48.862;9.188;2023-04-24T07:00:37;3.05;;;2.00;;
9208;SDS011;4639;48.862;9.188;2023-04-24T07:03:03;2.10;;;1.80;;
9208;SDS011;4639;48.862;9.188;2023-04-24T07:05:30;5.85;;;1.95;;
9208;SDS011;4639;48.862;9.188;2023-04-24T07:07:56;1.55;;;1.40;;
9208;SDS011;4639;48.862;9.188;2023-04-24T07:10:23;4.60;;;1.83;;
9208;SDS011;4639;48.862;9.188;2023-04-24T07:12:49;1.88;;;1.60;;
9208;SDS011;4639;48.862;9.188;2023-04-24T07:15:15;3.10;;;1.73;;
9208;SDS011;4639;48.862;9.188;2023-04-24T07:17:41;3.72;;;1.73;;
9208;SDS011;4639;48.862;9.188;2023-04-24T07:20:09;2.03;;;1.50;;
9208;SDS011;4639;48.862;9.188;2023-04-24T07:22:35;2.15;;;1.50;;
9208;SDS011;4639;48.862;9.188;2023-04-24T07:25:02;1.60;;;1.50;;
9208;SDS011;4639;48.862;9.188;2023-04-24T07:27:28;1.60;;;1.50;;
9208;SDS011;4639;48.862;9.188;2023-04-24T07:29:54;1.95;;;1.75;;
9208;SDS011;4639;48.862;9.188;2023-04-24T07:32:19;1.75;;;1.58;;
9208;SDS011;4639;48.862;9.188;2023-04-24T07:34:45;1.73;;;1.58;;
9208;SDS011;4639;48.862;9.188;2023-04-24T07:37:11;2.22;;;1.48;;
9208;SDS011;4639;48.862;9.188;2023-04-24T07:39:36;1.83;;;1.52;;
9208;SDS011;4639;48.862;9.188;2023-04-24T07:42:02;1.90;;;1.50;;
9208;SDS011;4639;48.862;9.188;2023-04-24T07:44:28;2.17;;;1.40;;
9208;SDS011;4639;48.862;9.188;2023-04-24T07:46:54;3.35;;;1.45;;
9208;SDS011;4639;48.862;9.188;2023-04-24T07:49:20;3.83;;;1.70;;
9208;SDS011;4639;48.862;9.188;2023-04-24T07:51:46;2.20;;;1.40;;
9208;SDS011;4639;48.862;9.188;2023-04-24T07:54:12;4.57;;;1.70;;
9208;SDS011;4639;48.862;9.188;2023-04-24T07:56:37;2.10;;;1.50;;
9208;SDS011;4639;48.862;9.188;2023-04-24T07:59:04;2.42;;;1.50;;
9208;SDS011;4639;48.862;9.188;2023-04-24T08:01:30;1.42;;;1.25;;
9208;SDS011;4639;48.862;9.188;2023-04-24T08:03:55;8.43;;;1.52;;
9208;SDS011;4639;48.862;9.188;2023-04-24T08:06:21;2.05;;;1.70;;
9208;SDS011;4639;48.862;9.188;2023-04-24T08:08:47;2.50;;;1.40;;
9208;SDS011;4639;48.862;9.188;2023-04-24T08:11:12;3.17;;;1.70;;
9208;SDS011;4639;48.862;9.188;2023-04-24T08:13:38;3.85;;;1.42;;
9208;SDS011;4639;48.862;9.188;2023-04-24T08:16:04;1.90;;;1.27;;
9208;SDS011;4639;48.862;9.188;2023-04-24T08:18:29;2.80;;;1.50;;
9208;SDS011;4639;48.862;9.188;2023-04-24T08:20:55;4.05;;;1.42;;
9208;SDS011;4639;48.862;9.188;2023-04-24T08:23:26;2.88;;;1.40;;
9208;SDS011;4639;48.862;9.188;2023-04-24T08:25:51;1.90;;;1.63;;
9208;SDS011;4639;48.862;9.188;2023-04-24T08:28:17;1.73;;;1.40;;
9208;SDS011;4639;48.862;9.188;2023-04-24T08:30:45;1.58;;;1.27;;
9208;SDS011;4639;48.862;9.188;2023-04-24T08:33:11;4.18;;;1.92;;
9208;SDS011;4639;48.862;9.188;2023-04-24T08:35:38;4.07;;;1.60;;
9208;SDS011;4639;48.862;9.188;2023-04-24T08:38:04;3.67;;;1.70;;
9208;SDS011;4639;48.862;9.188;2023-04-24T08:40:30;24.05;;;1.70;;
9208;SDS011;4639;48.862;9.188;2023-04-24T08:42:59;1.55;;;1.20;;
9208;SDS011;4639;48.862;9.188;2023-04-24T08:45:25;2.08;;;1.58;;
9208;SDS011;4639;48.862;9.188;2023-04-24T08:47:52;4.90;;;1.65;;
9208;SDS011;4639;48.862;9.188;2023-04-24T08:50:19;4.18;;;1.45;;
9208;SDS011;4639;48.862;9.188;2023-04-24T08:52:45;2.53;;;1.30;;
9208;SDS011;4639;48.862;9.188;2023-04-24T08:55:14;1.67;;;1.23;;
9208;SDS011;4639;48.862;9.188;2023-04-24T08:57:43;2.13;;;1.10;;
9208;SDS011;4639;48.862;9.188;2023-04-24T09:00:10;1.73;;;1.20;;
9208;SDS011;4639;48.862;9.188;2023-04-24T09:02:36;1.42;;;1.17;;
9208;SDS011;4639;48.862;9.188;2023-04-24T09:05:05;3.55;;;1.30;;
9208;SDS011;4639;48.862;9.188;2023-04-24T09:07:31;1.92;;;1.00;;
9208;SDS011;4639;48.862;9.188;2023-04-24T09:10:01;3.30;;;1.10;;
9208;SDS011;4639;48.862;9.188;2023-04-24T09:12:27;2.08;;;1.27;;
9208;SDS011;4639;48.862;9.188;2023-04-24T09:14:53;2.20;;;1.15;;
9208;SDS011;4639;48.862;9.188;2023-04-24T09:17:20;4.57;;;1.30;;
9208;SDS011;4639;48.862;9.188;2023-04-24T09:19:47;2.78;;;1.42;;
9208;SDS011;4639;48.862;9.188;2023-04-24T09:22:15;1.90;;;1.20;;
9208;SDS011;4639;48.862;9.188;2023-04-24T09:24:40;2.22;;;1.17;;
9208;SDS011;4639;48.862;9.188;2023-04-24T09:27:06;3.80;;;1.27;;
9208;SDS011;4639;48.862;9.188;2023-04-24T09:29:32;2.38;;;0.90;;
9208;SDS011;4639;48.862;9.188;2023-04-24T09:31:58;3.08;;;1.70;;
9208;SDS011;4639;48.862;9.188;2023-04-24T09:34:27;1.45;;;1.20;;
9208;SDS011;4639;48.862;9.188;2023-04-24T09:36:53;1.33;;;1.13;;
9208;SDS011;4639;48.862;9.188;2023-04-24T09:39:19;3.85;;;1.25;;
9208;SDS011;4639;48.862;9.188;2023-04-24T09:46:42;2.17;;;1.20;;
9208;SDS011;4639;48.862;9.188;2023-04-24T09:49:09;1.50;;;0.98;;
9208;SDS011;4639;48.862;9.188;2023-04-24T09:51:38;2.83;;;1.35;;
9208;SDS011;4639;48.862;9.188;2023-04-24T09:54:13;3.97;;;1.60;;
9208;SDS011;4639;48.862;9.188;2023-04-24T09:56:48;2.50;;;1.30;;
9208;SDS011;4639;48.862;9.188;2023-04-24T09:59:15;1.30;;;1.10;;
9208;SDS011;4639;48.862;9.188;2023-04-24T10:01:41;1.10;;;1.00;;
9208;SDS011;4639;48.862;9.188;2023-04-24T10:04:16;2.28;;;0.98;;
9208;SDS011;4639;48.862;9.188;2023-04-24T10:06:43;3.22;;;1.33;;
9208;SDS011;4639;48.862;9.188;2023-04-24T10:09:09;4.00;;;1.40;;
9208;SDS011;4639;48.862;9.188;2023-04-24T10:11:36;4.45;;;1.30;;
9208;SDS011;4639;48.862;9.188;2023-04-24T10:14:03;2.90;;;1.17;;
9208;SDS011;4639;48.862;9.188;2023-04-24T10:16:29;2.70;;;1.10;;
9208;SDS011;4639;48.862;9.188;2023-04-24T10:18:58;2.47;;;1.45;;
9208;SDS011;4639;48.862;9.188;2023-04-24T10:21:24;1.92;;;1.08;;
9208;SDS011;4639;48.862;9.188;2023-04-24T10:26:50;2.20;;;1.25;;
9208;SDS011;4639;48.862;9.188;2023-04-24T10:29:17;2.58;;;1.00;;
9208;SDS011;4639;48.862;9.188;2023-04-24T10:31:44;3.35;;;1.60;;
9208;SDS011;4639;48.862;9.188;2023-04-24T10:34:13;1.85;;;1.23;;
9208;SDS011;4639;48.862;9.188;2023-04-24T10:36:42;2.00;;;1.73;;
9208;SDS011;4639;48.862;9.188;2023-04-24T10:39:13;1.77;;;1.40;;
9208;SDS011;4639;48.862;9.188;2023-04-24T10:41:42;1.50;;;1.35;;
9208;SDS011;4639;48.862;9.188;2023-04-24T10:44:09;3.13;;;1.50;;
9208;SDS011;4639;48.862;9.188;2023-04-24T10:46:36;2.75;;;1.55;;
9208;SDS011;4639;48.862;9.188;2023-04-24T10:49:03;2.47;;;1.25;;
9208;SDS011;4639;48.862;9.188;2023-04-24T10:51:49;3.30;;;1.50;;
9208;SDS011;4639;48.862;9.188;2023-04-24T10:54:34;2.53;;;1.55;;
9208;SDS011;4639;48.862;9.188;2023-04-24T10:59:44;2.00;;;1.30;;
9208;SDS011;4639;48.862;9.188;2023-04-24T11:02:10;3.35;;;1.67;;
9208;SDS011;4639;48.862;9.188;2023-04-24T11:04:36;2.47;;;1.10;;
9208;SDS011;4639;48.862;9.188;2023-04-24T11:07:04;3.13;;;1.20;;
9208;SDS011;4639;48.862;9.188;2023-04-24T11:09:30;2.53;;;1.40;;
9208;SDS011;4639;48.862;9.188;2023-04-24T11:12:04;1.90;;;1.33;;
9208;SDS011;4639;48.862;9.188;2023-04-24T11:17:32;3.30;;;1.20;;
9208;SDS011;4639;48.862;9.188;2023-04-24T11:20:02;1.77;;;1.20;;
9208;SDS011;4639;48.862;9.188;2023-04-24T11:22:33;1.80;;;1.10;;
9208;SDS011;4639;48.862;9.188;2023-04-24T11:25:00;1.60;;;1.33;;
9208;SDS011;4639;48.862;9.188;2023-04-24T11:27:29;2.13;;;1.27;;
9208;SDS011;4639;48.862;9.188;2023-04-24T11:32:41;1.67;;;1.58;;
9208;SDS011;4639;48.862;9.188;2023-04-24T11:37:42;2.80;;;1.83;;
9208;SDS011;4639;48.862;9.188;2023-04-24T11:40:09;2.33;;;1.60;;
9208;SDS011;4639;48.862;9.188;2023-04-24T11:42:37;3.97;;;1.90;;
9208;SDS011;4639;48.862;9.188;2023-04-24T11:45:22;2.55;;;1.65;;
9208;SDS011;4639;48.862;9.188;2023-04-24T11:47:52;1.60;;;1.40;;
9208;SDS011;4639;48.862;9.188;2023-04-24T11:50:19;3.30;;;1.45;;
9208;SDS011;4639;48.862;9.188;2023-04-24T11:52:47;1.42;;;1.20;;
9208;SDS011;4639;48.862;9.188;2023-04-24T11:57:40;1.83;;;1.20;;
9208;SDS011;4639;48.862;9.188;2023-04-24T12:00:14;4.50;;;1.30;;
9208;SDS011;4639;48.862;9.188;2023-04-24T12:02:41;3.25;;;1.20;;
9208;SDS011;4639;48.862;9.188;2023-04-24T12:05:07;2.58;;;1.35;;
9208;SDS011;4639;48.862;9.188;2023-04-24T12:07:39;1.80;;;1.40;;
9208;SDS011;4639;48.862;9.188;2023-04-24T12:10:07;1.40;;;1.30;;
9208;SDS011;4639;48.862;9.188;2023-04-24T12:12:34;1.65;;;1.20;;
9208;SDS011;4639;48.862;9.188;2023-04-24T12:15:00;2.35;;;1.50;;
9208;SDS011;4639;48.862;9.188;2023-04-24T12:17:31;1.92;;;1.63;;
9208;SDS011;4639;48.862;9.188;2023-04-24T12:20:02;3.38;;;1.50;;
9208;SDS011;4639;48.862;9.188;2023-04-24T12:22:45;1.73;;;1.20;;
9208;SDS011;4639;48.862;9.188;2023-04-24T12:25:11;1.83;;;1.45;;
9208;SDS011;4639;48.862;9.188;2023-04-24T12:27:37;2.28;;;1.48;;
9208;SDS011;4639;48.862;9.188;2023-04-24T12:30:03;2.08;;;1.27;;
9208;SDS011;4639;48.862;9.188;2023-04-24T12:32:30;1.50;;;1.17;;
9208;SDS011;4639;48.862;9.188;2023-04-24T12:34:56;2.15;;;1.40;;
9208;SDS011;4639;48.862;9.188;2023-04-24T12:37:26;2.28;;;1.20;;
9208;SDS011;4639;48.862;9.188;2023-04-24T12:42:32;5.07;;;1.20;;
9208;SDS011;4639;48.862;9.188;2023-04-24T12:45:00;2.67;;;1.40;;
9208;SDS011;4639;48.862;9.188;2023-04-24T12:47:30;3.03;;;1.42;;
9208;SDS011;4639;48.862;9.188;2023-04-24T12:49:57;2.17;;;1.45;;
9208;SDS011;4639;48.862;9.188;2023-04-24T12:52:23;1.77;;;1.33;;
9208;SDS011;4639;48.862;9.188;2023-04-24T12:54:52;1.90;;;1.50;;
9208;SDS011;4639;48.862;9.188;2023-04-24T12:57:18;1.60;;;1.50;;
9208;SDS011;4639;48.862;9.188;2023-04-24T12:59:43;3.35;;;1.65;;
9208;SDS011;4639;48.862;9.188;2023-04-24T13:02:09;3.28;;;1.70;;
9208;SDS011;4639;48.862;9.188;2023-04-24T13:04:35;2.60;;;1.45;;
9208;SDS011;4639;48.862;9.188;2023-04-24T13:07:01;1.50;;;1.10;;
9208;SDS011;4639;48.862;9.188;2023-04-24T13:09:27;1.20;;;1.10;;
9208;SDS011;4639;48.862;9.188;2023-04-24T13:11:53;1.38;;;1.27;;
9208;SDS011;4639;48.862;9.188;2023-04-24T13:14:19;2.40;;;1.48;;
9208;SDS011;4639;48.862;9.188;2023-04-24T13:16:45;2.15;;;1.73;;
9208;SDS011;4639;48.862;9.188;2023-04-24T13:19:10;4.20;;;1.70;;
9208;SDS011;4639;48.862;9.188;2023-04-24T13:21:36;1.70;;;1.50;;
9208;SDS011;4639;48.862;9.188;2023-04-24T13:24:01;1.77;;;1.67;;
9208;SDS011;4639;48.862;9.188;2023-04-24T13:26:29;8.25;;;2.28;;
9208;SDS011;4639;48.862;9.188;2023-04-24T13:28:55;4.63;;;2.20;;
9208;SDS011;4639;48.862;9.188;2023-04-24T13:31:21;3.10;;;2.28;;
9208;SDS011;4639;48.862;9.188;2023-04-24T13:33:46;2.30;;;2.13;;
9208;SDS011;4639;48.862;9.188;2023-04-24T13:36:12;3.33;;;2.22;;
9208;SDS011;4639;48.862;9.188;2023-04-24T13:38:37;4.68;;;2.05;;
9208;SDS011;4639;48.862;9.188;2023-04-24T13:41:03;4.25;;;2.03;;
9208;SDS011;4639;48.862;9.188;2023-04-24T13:43:28;3.75;;;2.17;;
9208;SDS011;4639;48.862;9.188;2023-04-24T13:45:54;2.25;;;2.05;;
9208;SDS011;4639;48.862;9.188;2023-04-24T13:48:20;3.22;;;2.10;;
9208;SDS011;4639;48.862;9.188;2023-04-24T13:50:46;2.92;;;1.77;;
9208;SDS011;4639;48.862;9.188;2023-04-24T13:53:13;2.10;;;1.80;;
9208;SDS011;4639;48.862;9.188;2023-04-24T13:55:39;17.52;;;4.25;;
9208;SDS011;4639;48.862;9.188;2023-04-24T13:58:05;4.57;;;1.48;;
9208;SDS011;4639;48.862;9.188;2023-04-24T14:00:31;3.08;;;1.80;;
9208;SDS011;4639;48.862;9.188;2023-04-24T14:02:57;2.15;;;1.65;;
9208;SDS011;4639;48.862;9.188;2023-04-24T14:05:22;6.53;;;1.67;;
9208;SDS011;4639;48.862;9.188;2023-04-24T14:07:48;1.85;;;1.58;;
9208;SDS011;4639;48.862;9.188;2023-04-24T14:10:14;2.70;;;1.90;;
9208;SDS011;4639;48.862;9.188;2023-04-24T14:12:39;1.52;;;1.40;;
9208;SDS011;4639;48.862;9.188;2023-04-24T14:15:05;3.33;;;1.70;;
9208;SDS011;4639;48.862;9.188;2023-04-24T14:17:31;2.33;;;1.88;;
9208;SDS011;4639;48.862;9.188;2023-04-24T14:19:57;1.60;;;1.50;;
9208;SDS011;4639;48.862;9.188;2023-04-24T14:22:24;3.88;;;1.65;;
9208;SDS011;4639;48.862;9.188;2023-04-24T14:24:50;1.70;;;1.58;;
9208;SDS011;4639;48.862;9.188;2023-04-24T14:27:15;2.03;;;1.58;;
9208;SDS011;4639;48.862;9.188;2023-04-24T14:29:41;1.67;;;1.58;;
9208;SDS011;4639;48.862;9.188;2023-04-24T14:32:07;3.17;;;1.58;;
9208;SDS011;4639;48.862;9.188;2023-04-24T14:34:33;1.70;;;1.60;;
9208;SDS011;4639;48.862;9.188;2023-04-24T14:36:59;1.73;;;1.55;;
9208;SDS011;4639;48.862;9.188;2023-04-24T14:39:25;1.50;;;1.40;;
9208;SDS011;4639;48.862;9.188;2023-04-24T14:41:51;2.58;;;2.15;;
9208;SDS011;4639;48.862;9.188;2023-04-24T14:44:16;2.03;;;1.52;;
9208;SDS011;4639;48.862;9.188;2023-04-24T14:46:42;2.83;;;1.77;;
9208;SDS011;4639;48.862;9.188;2023-04-24T14:49:08;2.95;;;1.70;;
9208;SDS011;4639;48.862;9.188;2023-04-24T14:51:34;3.08;;;1.63;;
9208;SDS011;4639;48.862;9.188;2023-04-24T14:54:00;2.38;;;1.60;;
9208;SDS011;4639;48.862;9.188;2023-04-24T14:56:26;1.95;;;1.20;;
9208;SDS011;4639;48.862;9.188;2023-04-24T14:58:52;1.40;;;1.30;;
9208;SDS011;4639;48.862;9.188;2023-04-24T15:01:18;1.80;;;1.50;;
9208;SDS011;4639;48.862;9.188;2023-04-24T15:03:43;2.67;;;1.40;;
9208;SDS011;4639;48.862;9.188;2023-04-24T15:06:09;3.85;;;1.40;;
9208;SDS011;4639;48.862;9.188;2023-04-24T15:08:34;2.45;;;1.60;;
9208;SDS011;4639;48.862;9.188;2023-04-24T15:11:00;2.65;;;1.25;;
9208;SDS011;4639;48.862;9.188;2023-04-24T15:13:26;1.67;;;1.50;;
9208;SDS011;4639;48.862;9.188;2023-04-24T15:15:52;1.73;;;1.63;;
9208;SDS011;4639;48.862;9.188;2023-04-24T15:18:17;3.65;;;1.95;;
9208;SDS011;4639;48.862;9.188;2023-04-24T15:20:43;2.92;;;1.90;;
9208;SDS011;4639;48.862;9.188;2023-04-24T15:23:08;2.80;;;1.60;;
9208;SDS011;4639;48.862;9.188;2023-04-24T15:25:34;2.05;;;1.83;;
9208;SDS011;4639;48.862;9.188;2023-04-24T15:28:00;2.13;;;1.75;;
9208;SDS011;4639;48.862;9.188;2023-04-24T15:30:26;1.92;;;1.50;;
9208;SDS011;4639;48.862;9.188;2023-04-24T15:32:52;2.35;;;1.50;;
9208;SDS011;4639;48.862;9.188;2023-04-24T15:35:17;1.15;;;0.88;;